sensor_id;sensor_type;location;lat;lon;timestamp;P1;durP1;ratioP1;P2;durP2;ratioP2
47669;SDS011;33408;52.062;11.722;2023-01-31T00:02:24;19.50;;;4.32;;
47669;SDS011;33408;52.062;11.722;2023-01-31T00:04:50;22.92;;;3.53;;
47669;SDS011;33408;52.062;11.722;2023-01-31T00:07:17;19.77;;;4.57;;
47669;SDS011;33408;52.062;11.722;2023-01-31T00:09:44;22.83;;;5.68;;
47669;SDS011;33408;52.062;11.722;2023-01-31T00:12:10;25.92;;;5.28;;
47669;SDS011;33408;52.062;11.722;2023-01-31T00:14:37;22.67;;;5.07;;
47669;SDS011;33408;52.062;11.722;2023-01-31T00:17:03;19.17;;;4.15;;
47669;SDS011;33408;52.062;11.722;2023-01-31T00:19:31;19.73;;;5.13;;
47669;SDS011;33408;52.062;11.722;2023-01-31T00:21:58;16.10;;;4.22;;
47669;SDS011;33408;52.062;11.722;2023-01-31T00:24:24;20.42;;;4.93;;
47669;SDS011;33408;52.062;11.722;2023-01-31T00:26:51;13.63;;;4.60;;
47669;SDS011;33408;52.062;11.722;2023-01-31T00:29:21;17.77;;;3.95;;
47669;SDS011;33408;52.062;11.722;2023-01-31T00:31:47;25.20;;;5.78;;
47669;SDS011;33408;52.062;11.722;2023-01-31T00:34:14;21.33;;;4.30;;
47669;SDS011;33408;52.062;11.722;2023-01-31T00:36:42;20.05;;;4.20;;
47669;SDS011;33408;52.062;11.722;2023-01-31T00:39:08;21.63;;;5.40;;
47669;SDS011;33408;52.062;11.722;2023-01-31T00:41:36;17.95;;;3.97;;
47669;SDS011;33408;52.062;11.722;2023-01-31T00:44:03;20.65;;;5.03;;
47669;SDS011;33408;52.062;11.722;2023-01-31T00:46:31;22.00;;;4.72;;
47669;SDS011;33408;52.062;11.722;2023-01-31T00:48:57;17.25;;;4.28;;
47669;SDS011;33408;52.062;11.722;2023-01-31T00:51:25;19.13;;;4.38;;
47669;SDS011;33408;52.062;11.722;2023-01-31T00:53:53;19.00;;;4.07;;
47669;SDS011;33408;52.062;11.722;2023-01-31T00:56:22;19.23;;;3.95;;
47669;SDS011;33408;52.062;11.722;2023-01-31T00:58:49;22.90;;;4.50;;
47669;SDS011;33408;52.062;11.722;2023-01-31T01:01:17;17.02;;;3.85;;
47669;SDS011;33408;52.062;11.722;2023-01-31T01:03:46;23.98;;;4.72;;
47669;SDS011;33408;52.062;11.722;2023-01-31T01:06:13;22.00;;;4.03;;
47669;SDS011;33408;52.062;11.722;2023-01-31T01:08:40;23.75;;;4.75;;
47669;SDS011;33408;52.062;11.722;2023-01-31T01:11:09;18.67;;;4.45;;
47669;SDS011;33408;52.062;11.722;2023-01-31T01:13:38;23.40;;;5.55;;
47669;SDS011;33408;52.062;11.722;2023-01-31T01:16:06;21.27;;;4.40;;
47669;SDS011;33408;52.062;11.722;2023-01-31T01:18:35;22.92;;;5.22;;
47669;SDS011;33408;52.062;11.722;2023-01-31T01:21:06;21.98;;;4.88;;
47669;SDS011;33408;52.062;11.722;2023-01-31T01:23:34;15.63;;;4.37;;
47669;SDS011;33408;52.062;11.722;2023-01-31T01:26:01;25.70;;;4.35;;
47669;SDS011;33408;52.062;11.722;2023-01-31T01:28:28;16.95;;;4.03;;
47669;SDS011;33408;52.062;11.722;2023-01-31T01:30:58;17.75;;;4.40;;
47669;SDS011;33408;52.062;11.722;2023-01-31T01:33:25;18.48;;;4.45;;
47669;SDS011;33408;52.062;11.722;2023-01-31T01:35:51;19.45;;;4.38;;
47669;SDS011;33408;52.062;11.722;2023-01-31T01:38:18;16.15;;;3.42;;
47669;SDS011;33408;52.062;11.722;2023-01-31T01:40:45;18.13;;;3.85;;
47669;SDS011;33408;52.062;11.722;2023-01-31T01:43:11;18.70;;;3.97;;
47669;SDS011;33408;52.062;11.722;2023-01-31T01:45:40;17.90;;;4.95;;
47669;SDS011;33408;52.062;11.722;2023-01-31T01:48:06;16.83;;;3.38;;
47669;SDS011;33408;52.062;11.722;2023-01-31T01:50:37;14.85;;;3.47;;
47669;SDS011;33408;52.062;11.722;2023-01-31T01:53:07;19.88;;;3.88;;
47669;SDS011;33408;52.062;11.722;2023-01-31T01:55:38;25.77;;;4.17;;
47669;SDS011;33408;52.062;11.722;2023-01-31T01:58:08;13.63;;;4.18;;
47669;SDS011;33408;52.062;11.722;2023-01-31T02:00:40;19.90;;;4.30;;
47669;SDS011;33408;52.062;11.722;2023-01-31T02:03:09;18.17;;;4.28;;
47669;SDS011;33408;52.062;11.722;2023-01-31T02:05:39;19.90;;;4.28;;
47669;SDS011;33408;52.062;11.722;2023-01-31T02:10:37;23.58;;;4.05;;
47669;SDS011;33408;52.062;11.722;2023-01-31T02:13:08;19.33;;;4.10;;
47669;SDS011;33408;52.062;11.722;2023-01-31T02:15:36;16.20;;;3.78;;
47669;SDS011;33408;52.062;11.722;2023-01-31T02:18:04;17.83;;;3.30;;
47669;SDS011;33408;52.062;11.722;2023-01-31T02:20:36;20.80;;;4.65;;
47669;SDS011;33408;52.062;11.722;2023-01-31T02:23:34;19.80;;;4.05;;
47669;SDS011;33408;52.062;11.722;2023-01-31T02:29:32;16.58;;;3.78;;
47669;SDS011;33408;52.062;11.722;2023-01-31T02:32:23;23.20;;;4.45;;
47669;SDS011;33408;52.062;11.722;2023-01-31T02:35:11;22.00;;;4.70;;
47669;SDS011;33408;52.062;11.722;2023-01-31T02:37:47;20.83;;;4.30;;
47669;SDS011;33408;52.062;11.722;2023-01-31T02:40:25;25.63;;;4.78;;
47669;SDS011;33408;52.062;11.722;2023-01-31T02:43:05;24.50;;;4.97;;
47669;SDS011;33408;52.062;11.722;2023-01-31T02:45:39;26.83;;;5.20;;
47669;SDS011;33408;52.062;11.722;2023-01-31T02:48:16;21.13;;;5.10;;
47669;SDS011;33408;52.062;11.722;2023-01-31T02:50:52;22.55;;;4.22;;
47669;SDS011;33408;52.062;11.722;2023-01-31T02:53:27;19.30;;;4.45;;
47669;SDS011;33408;52.062;11.722;2023-01-31T02:55:57;20.40;;;4.78;;
47669;SDS011;33408;52.062;11.722;2023-01-31T02:58:39;24.67;;;4.63;;
47669;SDS011;33408;52.062;11.722;2023-01-31T03:01:09;18.15;;;4.55;;
47669;SDS011;33408;52.062;11.722;2023-01-31T03:03:41;21.58;;;5.43;;
47669;SDS011;33408;52.062;11.722;2023-01-31T03:06:37;17.80;;;4.13;;
47669;SDS011;33408;52.062;11.722;2023-01-31T03:09:31;15.55;;;4.13;;
47669;SDS011;33408;52.062;11.722;2023-01-31T03:15:09;21.55;;;4.20;;
47669;SDS011;33408;52.062;11.722;2023-01-31T03:17:51;19.98;;;4.13;;
47669;SDS011;33408;52.062;11.722;2023-01-31T03:20:28;17.50;;;3.80;;
47669;SDS011;33408;52.062;11.722;2023-01-31T03:23:02;19.20;;;4.18;;
47669;SDS011;33408;52.062;11.722;2023-01-31T03:25:34;17.20;;;3.30;;
47669;SDS011;33408;52.062;11.722;2023-01-31T03:28:03;20.77;;;4.13;;
47669;SDS011;33408;52.062;11.722;2023-01-31T03:30:34;20.13;;;4.68;;
47669;SDS011;33408;52.062;11.722;2023-01-31T03:33:05;18.85;;;3.80;;
47669;SDS011;33408;52.062;11.722;2023-01-31T03:35:37;15.55;;;3.47;;
47669;SDS011;33408;52.062;11.722;2023-01-31T03:38:08;14.35;;;3.58;;
47669;SDS011;33408;52.062;11.722;2023-01-31T03:40:40;16.50;;;3.90;;
47669;SDS011;33408;52.062;11.722;2023-01-31T03:43:14;20.40;;;4.47;;
47669;SDS011;33408;52.062;11.722;2023-01-31T03:45:50;12.13;;;3.05;;
47669;SDS011;33408;52.062;11.722;2023-01-31T03:48:25;14.50;;;3.75;;
47669;SDS011;33408;52.062;11.722;2023-01-31T03:50:58;17.05;;;4.68;;
47669;SDS011;33408;52.062;11.722;2023-01-31T03:53:28;16.33;;;3.97;;
47669;SDS011;33408;52.062;11.722;2023-01-31T03:55:59;17.05;;;3.83;;
47669;SDS011;33408;52.062;11.722;2023-01-31T03:58:30;11.80;;;2.65;;
47669;SDS011;33408;52.062;11.722;2023-01-31T04:01:00;8.38;;;2.33;;
47669;SDS011;33408;52.062;11.722;2023-01-31T04:03:35;12.10;;;3.08;;
47669;SDS011;33408;52.062;11.722;2023-01-31T04:06:05;19.08;;;4.43;;
47669;SDS011;33408;52.062;11.722;2023-01-31T04:08:33;15.43;;;3.65;;
47669;SDS011;33408;52.062;11.722;2023-01-31T04:11:02;18.65;;;3.90;;
47669;SDS011;33408;52.062;11.722;2023-01-31T04:13:30;18.00;;;4.10;;
47669;SDS011;33408;52.062;11.722;2023-01-31T04:15:57;16.30;;;3.75;;
47669;SDS011;33408;52.062;11.722;2023-01-31T04:18:23;15.10;;;4.03;;
47669;SDS011;33408;52.062;11.722;2023-01-31T04:20:50;15.73;;;3.90;;
47669;SDS011;33408;52.062;11.722;2023-01-31T04:23:18;19.63;;;4.80;;
47669;SDS011;33408;52.062;11.722;2023-01-31T04:25:44;18.23;;;4.43;;
47669;SDS011;33408;52.062;11.722;2023-01-31T04:28:11;19.20;;;3.90;;
47669;SDS011;33408;52.062;11.722;2023-01-31T04:30:38;18.48;;;4.40;;
47669;SDS011;33408;52.062;11.722;2023-01-31T04:33:04;21.70;;;4.93;;
47669;SDS011;33408;52.062;11.722;2023-01-31T04:35:31;17.90;;;3.63;;
47669;SDS011;33408;52.062;11.722;2023-01-31T04:37:59;22.50;;;4.63;;
47669;SDS011;33408;52.062;11.722;2023-01-31T04:40:27;20.58;;;3.90;;
47669;SDS011;33408;52.062;11.722;2023-01-31T04:42:53;23.33;;;5.07;;
47669;SDS011;33408;52.062;11.722;2023-01-31T04:45:20;24.30;;;3.67;;
47669;SDS011;33408;52.062;11.722;2023-01-31T04:47:46;14.95;;;4.05;;
47669;SDS011;33408;52.062;11.722;2023-01-31T04:50:13;19.25;;;3.70;;
47669;SDS011;33408;52.062;11.722;2023-01-31T04:52:40;22.15;;;4.35;;
47669;SDS011;33408;52.062;11.722;2023-01-31T04:55:07;12.85;;;3.17;;
47669;SDS011;33408;52.062;11.722;2023-01-31T04:57:35;17.67;;;4.25;;
47669;SDS011;33408;52.062;11.722;2023-01-31T05:00:02;22.02;;;4.97;;
47669;SDS011;33408;52.062;11.722;2023-01-31T05:02:29;19.52;;;3.92;;
47669;SDS011;33408;52.062;11.722;2023-01-31T05:04:56;24.20;;;4.45;;
47669;SDS011;33408;52.062;11.722;2023-01-31T05:07:22;17.25;;;4.28;;
47669;SDS011;33408;52.062;11.722;2023-01-31T05:09:49;20.13;;;3.90;;
47669;SDS011;33408;52.062;11.722;2023-01-31T05:12:15;13.27;;;3.90;;
47669;SDS011;33408;52.062;11.722;2023-01-31T05:14:43;19.85;;;4.35;;
47669;SDS011;33408;52.062;11.722;2023-01-31T05:17:10;20.33;;;3.83;;
47669;SDS011;33408;52.062;11.722;2023-01-31T05:19:37;20.98;;;4.03;;
47669;SDS011;33408;52.062;11.722;2023-01-31T05:22:03;19.95;;;3.80;;
47669;SDS011;33408;52.062;11.722;2023-01-31T05:24:30;20.45;;;3.80;;
47669;SDS011;33408;52.062;11.722;2023-01-31T05:27:01;14.70;;;3.53;;
47669;SDS011;33408;52.062;11.722;2023-01-31T05:29:29;15.75;;;3.45;;
47669;SDS011;33408;52.062;11.722;2023-01-31T05:31:59;14.40;;;3.35;;
47669;SDS011;33408;52.062;11.722;2023-01-31T05:34:26;18.13;;;4.32;;
47669;SDS011;33408;52.062;11.722;2023-01-31T05:36:54;14.77;;;3.92;;
47669;SDS011;33408;52.062;11.722;2023-01-31T05:39:21;21.88;;;3.58;;
47669;SDS011;33408;52.062;11.722;2023-01-31T05:41:48;15.35;;;3.42;;
47669;SDS011;33408;52.062;11.722;2023-01-31T05:44:14;23.10;;;3.92;;
47669;SDS011;33408;52.062;11.722;2023-01-31T05:46:41;17.52;;;3.08;;
47669;SDS011;33408;52.062;11.722;2023-01-31T05:49:09;18.23;;;4.40;;
47669;SDS011;33408;52.062;11.722;2023-01-31T05:51:36;19.58;;;3.38;;
47669;SDS011;33408;52.062;11.722;2023-01-31T05:54:03;20.45;;;4.30;;
47669;SDS011;33408;52.062;11.722;2023-01-31T05:56:30;17.30;;;3.85;;
47669;SDS011;33408;52.062;11.722;2023-01-31T05:58:57;15.30;;;4.15;;
47669;SDS011;33408;52.062;11.722;2023-01-31T06:01:25;21.55;;;4.25;;
47669;SDS011;33408;52.062;11.722;2023-01-31T06:03:52;20.15;;;4.22;;
47669;SDS011;33408;52.062;11.722;2023-01-31T06:06:20;22.35;;;5.30;;
47669;SDS011;33408;52.062;11.722;2023-01-31T06:08:47;21.52;;;5.10;;
47669;SDS011;33408;52.062;11.722;2023-01-31T06:11:13;17.60;;;4.90;;
47669;SDS011;33408;52.062;11.722;2023-01-31T06:13:40;16.85;;;4.28;;
47669;SDS011;33408;52.062;11.722;2023-01-31T06:16:08;21.33;;;4.03;;
47669;SDS011;33408;52.062;11.722;2023-01-31T06:18:36;18.05;;;4.68;;
47669;SDS011;33408;52.062;11.722;2023-01-31T06:21:02;15.48;;;4.03;;
47669;SDS011;33408;52.062;11.722;2023-01-31T06:23:31;17.02;;;3.95;;
47669;SDS011;33408;52.062;11.722;2023-01-31T06:25:58;24.88;;;4.30;;
47669;SDS011;33408;52.062;11.722;2023-01-31T06:28:25;17.17;;;4.38;;
47669;SDS011;33408;52.062;11.722;2023-01-31T06:30:51;25.33;;;5.95;;
47669;SDS011;33408;52.062;11.722;2023-01-31T06:33:18;18.60;;;4.28;;
47669;SDS011;33408;52.062;11.722;2023-01-31T06:35:44;17.55;;;4.85;;
47669;SDS011;33408;52.062;11.722;2023-01-31T06:38:11;13.52;;;3.22;;
47669;SDS011;33408;52.062;11.722;2023-01-31T06:40:41;22.25;;;4.50;;
47669;SDS011;33408;52.062;11.722;2023-01-31T06:43:08;21.73;;;4.93;;
47669;SDS011;33408;52.062;11.722;2023-01-31T06:45:34;19.92;;;3.95;;
47669;SDS011;33408;52.062;11.722;2023-01-31T06:48:01;20.27;;;4.53;;
47669;SDS011;33408;52.062;11.722;2023-01-31T06:50:28;19.67;;;4.35;;
47669;SDS011;33408;52.062;11.722;2023-01-31T06:52:54;19.75;;;4.03;;
47669;SDS011;33408;52.062;11.722;2023-01-31T06:55:23;13.90;;;3.72;;
47669;SDS011;33408;52.062;11.722;2023-01-31T06:57:51;21.65;;;4.68;;
47669;SDS011;33408;52.062;11.722;2023-01-31T07:00:19;17.98;;;4.03;;
47669;SDS011;33408;52.062;11.722;2023-01-31T07:02:46;18.17;;;3.65;;
47669;SDS011;33408;52.062;11.722;2023-01-31T07:05:13;16.98;;;4.53;;
47669;SDS011;33408;52.062;11.722;2023-01-31T07:07:40;19.83;;;3.20;;
47669;SDS011;33408;52.062;11.722;2023-01-31T07:10:07;21.27;;;3.38;;
47669;SDS011;33408;52.062;11.722;2023-01-31T07:12:35;20.70;;;4.43;;
47669;SDS011;33408;52.062;11.722;2023-01-31T07:15:03;12.55;;;3.55;;
47669;SDS011;33408;52.062;11.722;2023-01-31T07:17:31;22.42;;;4.72;;
47669;SDS011;33408;52.062;11.722;2023-01-31T07:19:58;14.70;;;3.25;;
47669;SDS011;33408;52.062;11.722;2023-01-31T07:22:25;17.83;;;4.03;;
47669;SDS011;33408;52.062;11.722;2023-01-31T07:24:52;20.25;;;3.90;;
47669;SDS011;33408;52.062;11.722;2023-01-31T07:27:18;18.23;;;3.50;;
47669;SDS011;33408;52.062;11.722;2023-01-31T07:29:45;16.42;;;3.67;;
47669;SDS011;33408;52.062;11.722;2023-01-31T07:32:13;20.42;;;3.65;;
47669;SDS011;33408;52.062;11.722;2023-01-31T07:34:39;13.30;;;3.05;;
47669;SDS011;33408;52.062;11.722;2023-01-31T07:37:06;14.05;;;3.55;;
47669;SDS011;33408;52.062;11.722;2023-01-31T07:39:33;17.13;;;3.75;;
47669;SDS011;33408;52.062;11.722;2023-01-31T07:41:59;14.68;;;3.95;;
47669;SDS011;33408;52.062;11.722;2023-01-31T07:44:26;21.75;;;3.97;;
47669;SDS011;33408;52.062;11.722;2023-01-31T07:46:53;21.63;;;4.65;;
47669;SDS011;33408;52.062;11.722;2023-01-31T07:49:21;18.65;;;4.07;;
47669;SDS011;33408;52.062;11.722;2023-01-31T07:51:48;12.48;;;2.95;;
47669;SDS011;33408;52.062;11.722;2023-01-31T07:54:15;22.92;;;4.22;;
47669;SDS011;33408;52.062;11.722;2023-01-31T07:56:41;15.07;;;3.55;;
47669;SDS011;33408;52.062;11.722;2023-01-31T07:59:08;14.98;;;3.40;;
47669;SDS011;33408;52.062;11.722;2023-01-31T08:01:35;19.08;;;3.38;;
47669;SDS011;33408;52.062;11.722;2023-01-31T08:04:19;17.40;;;3.63;;
47669;SDS011;33408;52.062;11.722;2023-01-31T08:06:47;19.20;;;3.92;;
47669;SDS011;33408;52.062;11.722;2023-01-31T08:09:16;18.23;;;3.17;;
47669;SDS011;33408;52.062;11.722;2023-01-31T08:11:42;18.25;;;3.30;;
47669;SDS011;33408;52.062;11.722;2023-01-31T08:14:09;11.95;;;3.05;;
47669;SDS011;33408;52.062;11.722;2023-01-31T08:16:35;18.70;;;3.13;;
47669;SDS011;33408;52.062;11.722;2023-01-31T08:19:02;11.75;;;2.90;;
47669;SDS011;33408;52.062;11.722;2023-01-31T08:21:29;12.02;;;3.30;;
47669;SDS011;33408;52.062;11.722;2023-01-31T08:23:57;22.88;;;4.15;;
47669;SDS011;33408;52.062;11.722;2023-01-31T08:26:24;16.92;;;3.33;;
47669;SDS011;33408;52.062;11.722;2023-01-31T08:28:51;15.85;;;3.85;;
47669;SDS011;33408;52.062;11.722;2023-01-31T08:31:19;15.88;;;4.30;;
47669;SDS011;33408;52.062;11.722;2023-01-31T08:33:47;14.77;;;3.28;;
47669;SDS011;33408;52.062;11.722;2023-01-31T08:36:16;12.30;;;3.38;;
47669;SDS011;33408;52.062;11.722;2023-01-31T08:38:43;15.75;;;4.38;;
47669;SDS011;33408;52.062;11.722;2023-01-31T08:41:12;21.05;;;3.72;;
47669;SDS011;33408;52.062;11.722;2023-01-31T08:43:39;17.50;;;4.40;;
47669;SDS011;33408;52.062;11.722;2023-01-31T08:46:06;18.10;;;4.22;;
47669;SDS011;33408;52.062;11.722;2023-01-31T08:48:32;13.88;;;3.53;;
47669;SDS011;33408;52.062;11.722;2023-01-31T08:51:00;13.35;;;3.30;;
47669;SDS011;33408;52.062;11.722;2023-01-31T08:53:27;12.38;;;4.18;;
47669;SDS011;33408;52.062;11.722;2023-01-31T08:55:56;13.32;;;3.20;;
47669;SDS011;33408;52.062;11.722;2023-01-31T08:58:25;16.75;;;4.35;;
47669;SDS011;33408;52.062;11.722;2023-01-31T09:00:52;17.35;;;3.83;;
47669;SDS011;33408;52.062;11.722;2023-01-31T09:03:18;16.17;;;3.70;;
47669;SDS011;33408;52.062;11.722;2023-01-31T09:05:45;19.55;;;4.45;;
47669;SDS011;33408;52.062;11.722;2023-01-31T09:08:11;20.60;;;4.07;;
47669;SDS011;33408;52.062;11.722;2023-01-31T09:10:38;21.15;;;4.15;;
47669;SDS011;33408;52.062;11.722;2023-01-31T09:13:05;18.67;;;3.72;;
47669;SDS011;33408;52.062;11.722;2023-01-31T09:15:32;14.50;;;3.53;;
47669;SDS011;33408;52.062;11.722;2023-01-31T09:17:59;13.43;;;3.17;;
47669;SDS011;33408;52.062;11.722;2023-01-31T09:20:26;20.10;;;4.18;;
47669;SDS011;33408;52.062;11.722;2023-01-31T09:22:52;14.88;;;4.20;;
47669;SDS011;33408;52.062;11.722;2023-01-31T09:25:19;14.65;;;4.50;;
47669;SDS011;33408;52.062;11.722;2023-01-31T09:27:45;21.13;;;4.80;;
47669;SDS011;33408;52.062;11.722;2023-01-31T09:30:12;14.82;;;4.68;;
47669;SDS011;33408;52.062;11.722;2023-01-31T09:32:41;13.57;;;4.03;;
47669;SDS011;33408;52.062;11.722;2023-01-31T09:35:09;17.20;;;4.57;;
47669;SDS011;33408;52.062;11.722;2023-01-31T09:37:36;16.27;;;4.50;;
47669;SDS011;33408;52.062;11.722;2023-01-31T09:40:03;15.27;;;4.55;;
47669;SDS011;33408;52.062;11.722;2023-01-31T09:42:32;18.42;;;5.10;;
47669;SDS011;33408;52.062;11.722;2023-01-31T09:45:03;20.83;;;4.45;;
47669;SDS011;33408;52.062;11.722;2023-01-31T09:47:35;23.30;;;5.32;;
47669;SDS011;33408;52.062;11.722;2023-01-31T09:50:06;16.88;;;4.70;;
47669;SDS011;33408;52.062;11.722;2023-01-31T09:52:43;14.35;;;4.28;;
47669;SDS011;33408;52.062;11.722;2023-01-31T09:55:13;23.77;;;5.00;;
47669;SDS011;33408;52.062;11.722;2023-01-31T09:57:42;17.45;;;5.32;;
47669;SDS011;33408;52.062;11.722;2023-01-31T10:00:21;21.88;;;5.80;;
47669;SDS011;33408;52.062;11.722;2023-01-31T10:02:57;20.65;;;5.75;;
47669;SDS011;33408;52.062;11.722;2023-01-31T10:05:45;25.75;;;4.97;;
47669;SDS011;33408;52.062;11.722;2023-01-31T10:08:16;14.15;;;4.32;;
47669;SDS011;33408;52.062;11.722;2023-01-31T10:10:53;15.68;;;4.25;;
47669;SDS011;33408;52.062;11.722;2023-01-31T10:13:23;14.95;;;4.63;;
47669;SDS011;33408;52.062;11.722;2023-01-31T10:15:56;17.98;;;4.75;;
47669;SDS011;33408;52.062;11.722;2023-01-31T10:18:29;13.32;;;4.07;;
47669;SDS011;33408;52.062;11.722;2023-01-31T10:21:03;19.77;;;4.80;;
47669;SDS011;33408;52.062;11.722;2023-01-31T10:23:34;17.02;;;4.75;;
47669;SDS011;33408;52.062;11.722;2023-01-31T10:26:07;13.50;;;4.93;;
47669;SDS011;33408;52.062;11.722;2023-01-31T10:28:39;21.37;;;5.50;;
47669;SDS011;33408;52.062;11.722;2023-01-31T10:31:13;26.88;;;5.72;;
47669;SDS011;33408;52.062;11.722;2023-01-31T10:33:48;18.52;;;5.35;;
47669;SDS011;33408;52.062;11.722;2023-01-31T10:36:23;20.55;;;5.43;;
47669;SDS011;33408;52.062;11.722;2023-01-31T10:38:54;20.80;;;5.93;;
47669;SDS011;33408;52.062;11.722;2023-01-31T10:41:30;19.67;;;5.18;;
47669;SDS011;33408;52.062;11.722;2023-01-31T10:44:05;18.25;;;5.90;;
47669;SDS011;33408;52.062;11.722;2023-01-31T10:46:38;16.98;;;5.78;;
47669;SDS011;33408;52.062;11.722;2023-01-31T10:49:04;19.00;;;5.35;;
47669;SDS011;33408;52.062;11.722;2023-01-31T10:51:37;19.00;;;5.95;;
47669;SDS011;33408;52.062;11.722;2023-01-31T10:54:20;21.83;;;6.55;;
47669;SDS011;33408;52.062;11.722;2023-01-31T10:56:57;26.65;;;5.45;;
47669;SDS011;33408;52.062;11.722;2023-01-31T10:59:25;20.17;;;6.32;;
47669;SDS011;33408;52.062;11.722;2023-01-31T11:01:58;18.85;;;5.45;;
47669;SDS011;33408;52.062;11.722;2023-01-31T11:04:27;19.02;;;5.95;;
47669;SDS011;33408;52.062;11.722;2023-01-31T11:06:58;19.23;;;6.18;;
47669;SDS011;33408;52.062;11.722;2023-01-31T11:09:26;19.15;;;5.20;;
47669;SDS011;33408;52.062;11.722;2023-01-31T11:11:57;15.65;;;5.18;;
47669;SDS011;33408;52.062;11.722;2023-01-31T11:14:25;21.77;;;6.32;;
47669;SDS011;33408;52.062;11.722;2023-01-31T11:16:58;16.45;;;6.07;;
47669;SDS011;33408;52.062;11.722;2023-01-31T11:21:59;16.98;;;5.80;;
47669;SDS011;33408;52.062;11.722;2023-01-31T11:24:33;17.92;;;5.45;;
47669;SDS011;33408;52.062;11.722;2023-01-31T11:27:06;15.27;;;5.65;;
47669;SDS011;33408;52.062;11.722;2023-01-31T11:29:35;19.20;;;5.32;;
47669;SDS011;33408;52.062;11.722;2023-01-31T11:32:11;12.43;;;4.45;;
47669;SDS011;33408;52.062;11.722;2023-01-31T11:34:47;15.98;;;4.80;;
47669;SDS011;33408;52.062;11.722;2023-01-31T11:37:22;18.50;;;5.32;;
47669;SDS011;33408;52.062;11.722;2023-01-31T11:39:53;19.45;;;5.97;;
47669;SDS011;33408;52.062;11.722;2023-01-31T11:44:55;13.38;;;4.85;;
47669;SDS011;33408;52.062;11.722;2023-01-31T11:47:24;16.02;;;6.15;;
47669;SDS011;33408;52.062;11.722;2023-01-31T11:49:56;17.77;;;6.10;;
47669;SDS011;33408;52.062;11.722;2023-01-31T11:52:28;15.55;;;4.90;;
47669;SDS011;33408;52.062;11.722;2023-01-31T11:54:57;13.02;;;4.75;;
47669;SDS011;33408;52.062;11.722;2023-01-31T11:57:27;13.48;;;5.03;;
47669;SDS011;33408;52.062;11.722;2023-01-31T11:59:57;12.48;;;5.05;;
47669;SDS011;33408;52.062;11.722;2023-01-31T12:02:30;15.85;;;5.38;;
47669;SDS011;33408;52.062;11.722;2023-01-31T12:05:06;13.13;;;4.70;;
47669;SDS011;33408;52.062;11.722;2023-01-31T12:07:41;10.85;;;4.63;;
47669;SDS011;33408;52.062;11.722;2023-01-31T12:10:23;10.65;;;4.38;;
47669;SDS011;33408;52.062;11.722;2023-01-31T12:12:53;12.52;;;3.95;;
47669;SDS011;33408;52.062;11.722;2023-01-31T12:15:23;10.35;;;3.50;;
47669;SDS011;33408;52.062;11.722;2023-01-31T12:17:50;13.70;;;4.10;;
47669;SDS011;33408;52.062;11.722;2023-01-31T12:20:19;15.65;;;4.32;;
47669;SDS011;33408;52.062;11.722;2023-01-31T12:22:59;11.52;;;4.15;;
47669;SDS011;33408;52.062;11.722;2023-01-31T12:25:40;14.68;;;4.88;;
47669;SDS011;33408;52.062;11.722;2023-01-31T12:28:18;14.07;;;4.93;;
47669;SDS011;33408;52.062;11.722;2023-01-31T12:34:10;10.75;;;3.70;;
47669;SDS011;33408;52.062;11.722;2023-01-31T12:36:52;14.98;;;3.80;;
47669;SDS011;33408;52.062;11.722;2023-01-31T12:39:39;8.13;;;3.03;;
47669;SDS011;33408;52.062;11.722;2023-01-31T12:44:49;6.25;;;2.45;;
47669;SDS011;33408;52.062;11.722;2023-01-31T12:47:30;8.07;;;2.50;;
47669;SDS011;33408;52.062;11.722;2023-01-31T12:50:27;7.57;;;2.38;;
47669;SDS011;33408;52.062;11.722;2023-01-31T12:56:01;9.52;;;3.15;;
47669;SDS011;33408;52.062;11.722;2023-01-31T12:58:41;5.97;;;2.47;;
47669;SDS011;33408;52.062;11.722;2023-01-31T13:01:18;5.32;;;2.50;;
47669;SDS011;33408;52.062;11.722;2023-01-31T13:03:57;7.43;;;2.42;;
47669;SDS011;33408;52.062;11.722;2023-01-31T13:06:38;6.45;;;2.60;;
47669;SDS011;33408;52.062;11.722;2023-01-31T13:09:09;7.78;;;2.85;;
47669;SDS011;33408;52.062;11.722;2023-01-31T13:11:40;6.63;;;2.58;;
47669;SDS011;33408;52.062;11.722;2023-01-31T13:14:13;6.18;;;2.30;;
47669;SDS011;33408;52.062;11.722;2023-01-31T13:16:44;5.93;;;2.33;;
47669;SDS011;33408;52.062;11.722;2023-01-31T13:19:14;6.63;;;2.42;;
47669;SDS011;33408;52.062;11.722;2023-01-31T13:21:44;9.95;;;3.10;;
47669;SDS011;33408;52.062;11.722;2023-01-31T13:24:14;8.57;;;2.38;;
47669;SDS011;33408;52.062;11.722;2023-01-31T13:26:47;8.70;;;2.97;;
47669;SDS011;33408;52.062;11.722;2023-01-31T13:29:17;8.00;;;2.37;;
47669;SDS011;33408;52.062;11.722;2023-01-31T13:31:52;6.97;;;2.55;;
47669;SDS011;33408;52.062;11.722;2023-01-31T13:34:25;8.27;;;2.42;;
47669;SDS011;33408;52.062;11.722;2023-01-31T13:36:57;8.47;;;2.43;;
47669;SDS011;33408;52.062;11.722;2023-01-31T13:39:27;9.88;;;2.63;;
47669;SDS011;33408;52.062;11.722;2023-01-31T13:41:59;7.40;;;2.38;;
47669;SDS011;33408;52.062;11.722;2023-01-31T13:44:26;7.38;;;2.78;;
47669;SDS011;33408;52.062;11.722;2023-01-31T13:46:54;7.47;;;2.75;;
47669;SDS011;33408;52.062;11.722;2023-01-31T13:49:26;8.02;;;2.58;;
47669;SDS011;33408;52.062;11.722;2023-01-31T13:51:58;6.30;;;2.65;;
47669;SDS011;33408;52.062;11.722;2023-01-31T13:54:27;5.97;;;2.35;;
47669;SDS011;33408;52.062;11.722;2023-01-31T13:56:59;6.63;;;2.70;;
47669;SDS011;33408;52.062;11.722;2023-01-31T13:59:28;6.00;;;2.70;;
47669;SDS011;33408;52.062;11.722;2023-01-31T14:01:58;8.77;;;2.78;;
47669;SDS011;33408;52.062;11.722;2023-01-31T14:04:28;6.90;;;2.90;;
47669;SDS011;33408;52.062;11.722;2023-01-31T14:16:01;5.65;;;2.70;;
47669;SDS011;33408;52.062;11.722;2023-01-31T14:18:35;5.97;;;2.72;;
47669;SDS011;33408;52.062;11.722;2023-01-31T14:24:16;7.07;;;2.42;;
47669;SDS011;33408;52.062;11.722;2023-01-31T14:26:51;5.80;;;2.72;;
47669;SDS011;33408;52.062;11.722;2023-01-31T14:29:19;5.07;;;2.33;;
47669;SDS011;33408;52.062;11.722;2023-01-31T14:31:51;6.07;;;2.65;;
47669;SDS011;33408;52.062;11.722;2023-01-31T14:34:21;4.70;;;2.45;;
47669;SDS011;33408;52.062;11.722;2023-01-31T14:39:46;5.72;;;2.28;;
47669;SDS011;33408;52.062;11.722;2023-01-31T14:48:22;5.70;;;2.40;;
47669;SDS011;33408;52.062;11.722;2023-01-31T14:51:12;5.88;;;2.25;;
47669;SDS011;33408;52.062;11.722;2023-01-31T14:53:59;5.50;;;2.30;;
47669;SDS011;33408;52.062;11.722;2023-01-31T14:56:51;3.65;;;1.88;;
47669;SDS011;33408;52.062;11.722;2023-01-31T14:59:27;5.78;;;2.28;;
47669;SDS011;33408;52.062;11.722;2023-01-31T15:01:57;4.43;;;1.92;;
47669;SDS011;33408;52.062;11.722;2023-01-31T15:04:26;6.45;;;2.13;;
47669;SDS011;33408;52.062;11.722;2023-01-31T15:06:54;5.78;;;2.25;;
47669;SDS011;33408;52.062;11.722;2023-01-31T15:09:27;4.82;;;2.10;;
47669;SDS011;33408;52.062;11.722;2023-01-31T15:12:02;4.60;;;1.73;;
47669;SDS011;33408;52.062;11.722;2023-01-31T15:14:34;7.57;;;2.05;;
47669;SDS011;33408;52.062;11.722;2023-01-31T15:17:04;3.95;;;1.70;;
47669;SDS011;33408;52.062;11.722;2023-01-31T15:19:41;3.97;;;1.90;;
47669;SDS011;33408;52.062;11.722;2023-01-31T15:22:12;5.65;;;2.08;;
47669;SDS011;33408;52.062;11.722;2023-01-31T15:24:43;3.67;;;1.70;;
47669;SDS011;33408;52.062;11.722;2023-01-31T15:27:13;3.33;;;1.70;;